Data for 11/30/2009

Time Sea-Level Adjusted Pressure Absolute Pressure Temperature Relative Humidity Dew Point   
(mb) (inHg) (mb) (inHg) (C) (F) (%) (C) (F)
00:05 1023 30.21 852 25.16 -0.2 31.6 71 -4.9 23.3
00:10 1023 30.21 852 25.16 -0.4 31.4 71 -5 23
00:15 1023 30.21 852 25.16 -0.5 31.1 71 -5.1 22.8
00:20 1023 30.21 852 25.16 -0.5 31 72 -5 23
00:25 1023 30.21 852 25.16 -0.6 31 71 -5.1 22.8
00:30 1023 30.21 852 25.16 -0.6 30.9 72 -5 22.9
00:35 1023 30.21 852 25.16 -0.8 30.6 71 -5.4 22.3
00:40 1023 30.21 852 25.16 -1.7 28.9 75 -5.7 21.8
00:45 1023 30.21 852 25.16 -1.3 29.6 71 -5.9 21.3
00:50 1023 30.21 852 25.16 -0.8 30.5 68 -6 21.1
00:55 1023 30.21 852 25.16 -0.6 30.9 68 -5.8 21.6
01:00 1023 30.21 852 25.16 -1.1 29.9 71 -5.7 21.7
01:05 1023 30.21 852 25.16 -1.2 29.8 71 -5.9 21.3
01:10 1023 30.21 852 25.16 -0.8 30.5 69 -5.9 21.4
01:15 1023 30.21 852 25.16 -1.5 29.3 74 -5.6 22
01:20 1022 30.18 852 25.16 -1.5 29.3 73 -5.7 21.7
01:25 1022 30.18 852 25.16 -2.2 28.1 73 -6.4 20.5
01:30 1023 30.21 852 25.16 -1.7 29 72 -6.1 21.1
01:35 1023 30.21 852 25.16 -1.3 29.6 70 -6 21.1
01:40 1023 30.21 852 25.16 -1.9 28.5 75 -5.8 21.5
01:45 1023 30.21 852 25.16 -2.9 26.8 80 -5.9 21.3
01:50 1023 30.21 852 25.16 -3.3 26.1 78 -6.5 20.3
01:55 1023 30.21 852 25.16 -2.6 27.4 75 -6.5 20.3
02:00 1023 30.21 852 25.16 -2 28.4 71 -6.6 20.2
02:05 1023 30.21 852 25.16 -1.7 28.9 70 -6.5 20.3
02:10 1023 30.21 852 25.16 -1.4 29.4 67 -6.7 20
02:15 1023 30.21 852 25.16 -1.5 29.3 68 -6.7 20
02:20 1023 30.21 852 25.16 -1.6 29.2 68 -6.8 19.8
02:25 1023 30.21 852 25.16 -1.6 29.2 68 -6.7 20
02:30 1023 30.21 852 25.16 -1.8 28.8 70 -6.6 20.1
02:35 1023 30.21 852 25.16 -2 28.5 69 -7 19.5
02:40 1023 30.21 852 25.16 -2.6 27.4 71 -7.2 19.1
02:45 1023 30.21 852 25.16 -2.2 28 70 -7 19.3
02:50 1023 30.21 852 25.16 -1.8 28.8 69 -6.6 20
02:55 1023 30.21 852 25.16 -1.9 28.7 70 -6.6 20.1
03:00 1023 30.21 852 25.16 -2.2 28 72 -6.6 20.1
03:05 1023 30.21 852 25.16 -2.6 27.4 73 -6.8 19.8
03:10 1023 30.21 852 25.16 -2.8 27 76 -6.5 20.4
03:15 1022 30.18 852 25.16 -2.5 27.5 74 -6.5 20.3
03:20 1023 30.21 852 25.16 -1.8 28.8 69 -6.8 19.8
03:25 1023 30.21 852 25.16 -1.7 28.9 69 -6.8 19.8
03:30 1022 30.18 852 25.16 -1.7 29 66 -7.1 19.2
03:35 1022 30.18 852 25.16 -1.5 29.3 67 -6.8 19.8
03:40 1022 30.18 852 25.16 -2 28.5 68 -7.1 19.3
03:45 1022 30.18 852 25.16 -1.9 28.6 69 -6.9 19.6
03:50 1022 30.18 851 25.13 -1.9 28.6 70 -6.7 20
03:55 1022 30.18 851 25.13 -1.7 29 72 -6.1 21
04:00 1022 30.18 851 25.13 -2.2 28 73 -6.4 20.4
04:05 1022 30.18 851 25.13 -2.2 28.1 74 -6.2 20.9
04:10 1022 30.18 851 25.13 -2.8 26.9 75 -6.6 20.1
04:15 1022 30.18 851 25.13 -3.1 26.4 75 -6.9 19.6
04:20 1022 30.18 852 25.16 -3.4 26 77 -6.8 19.7
04:25 1022 30.18 851 25.13 -3.7 25.3 79 -6.9 19.6
04:30 1022 30.18 851 25.13 -4.2 24.5 80 -7.1 19.2
04:35 1022 30.18 851 25.13 -4 24.8 79 -7.2 19.1
04:40 1022 30.18 851 25.13 -3.5 25.6 77 -6.9 19.5
04:45 1022 30.18 851 25.13 -3.2 26.2 76 -6.9 19.7
04:50 1022 30.18 851 25.13 -3.5 25.8 78 -6.8 19.8
04:55 1022 30.18 851 25.13 -3.2 26.2 76 -6.9 19.6
05:00 1022 30.18 851 25.13 -3.1 26.5 76 -6.7 19.9
05:05 1022 30.18 851 25.13 -3.1 26.4 76 -6.8 19.7
05:10 1022 30.18 851 25.13 -2.9 26.8 75 -6.7 19.9
05:15 1022 30.18 851 25.13 -3 26.7 75 -6.8 19.7
05:20 1022 30.18 851 25.13 -2.8 27 74 -6.8 19.8
05:25 1022 30.18 851 25.13 -2.8 27 75 -6.7 19.9
05:30 1022 30.18 851 25.13 -3 26.7 75 -6.8 19.8
05:35 1022 30.18 851 25.13 -3.1 26.5 75 -6.8 19.7
05:40 1022 30.18 851 25.13 -3.2 26.2 75 -7 19.4
05:45 1022 30.18 851 25.13 -3.1 26.4 75 -7 19.4
05:50 1022 30.18 851 25.13 -2.8 26.9 74 -6.9 19.6
05:55 1022 30.18 851 25.13 -2.9 26.9 75 -6.7 20
06:00 1022 30.18 851 25.13 -3 26.6 74 -7 19.4
06:05 1022 30.18 851 25.13 -2.9 26.7 74 -6.9 19.5
06:10 1021 30.15 851 25.13 -2.6 27.2 72 -7 19.5
06:15 1021 30.15 851 25.13 -2.6 27.3 73 -6.9 19.6
06:20 1021 30.15 851 25.13 -2.7 27.2 74 -6.7 19.9
06:25 1021 30.15 851 25.13 -3.1 26.5 76 -6.8 19.8
06:30 1021 30.15 850 25.1 -3.3 26 76 -6.9 19.6
06:35 1021 30.15 850 25.1 -3 26.5 74 -7 19.5
06:40 1021 30.15 850 25.1 -2.7 27.1 73 -6.8 19.7
06:45 1021 30.15 850 25.1 -2.8 26.9 74 -6.8 19.7
06:50 1021 30.15 850 25.1 -2.6 27.4 72 -6.9 19.5
06:55 1021 30.15 850 25.1 -2.5 27.4 73 -6.7 19.9
07:00 1021 30.15 850 25.1 -3 26.6 75 -6.8 19.7
07:05 1021 30.15 850 25.1 -3.2 26.2 76 -6.9 19.6
07:10 1021 30.15 850 25.1 -3.3 26.1 76 -7 19.4
07:15 1021 30.15 850 25.1 -3.1 26.4 74 -7.2 19.1
07:20 1021 30.15 850 25.1 -2.6 27.4 72 -7 19.4
07:25 1021 30.15 850 25.1 -2.1 28.2 70 -6.9 19.5
07:30 1021 30.15 850 25.1 -1.9 28.5 69 -6.8 19.7
07:35 1021 30.15 850 25.1 -1.7 28.9 67 -7 19.4
07:40 1021 30.15 850 25.1 -1.7 29 68 -6.8 19.8
07:45 1021 30.15 850 25.1 -2.4 27.7 72 -6.8 19.7
07:50 1021 30.15 850 25.1 -3 26.5 72 -7.5 18.6
07:55 1021 30.15 850 25.1 -3.4 25.8 74 -7.5 18.5
08:00 1021 30.15 850 25.1 -3.5 25.7 74 -7.5 18.5
08:05 1021 30.15 850 25.1 -3.1 26.5 72 -7.4 18.8
08:10 1021 30.15 850 25.1 -2.8 27 71 -7.4 18.7
08:15 1021 30.15 850 25.1 -2.4 27.6 70 -7.3 18.9
08:20 1021 30.15 850 25.1 -2.5 27.5 70 -7.3 18.9
08:25 1021 30.15 850 25.1 -2.6 27.2 70 -7.4 18.7
08:30 1020 30.12 850 25.1 -2.6 27.3 70 -7.3 18.8
08:35 1020 30.12 850 25.1 -2.1 28.2 68 -7.3 18.8
08:40 1020 30.12 850 25.1 -1.7 28.9 65 -7.4 18.7
08:45 1020 30.12 850 25.1 -1.6 29.2 65 -7.3 18.8
08:50 1020 30.12 850 25.1 -1.7 29 66 -7.3 18.9
08:55 1020 30.12 850 25.1 -1.5 29.3 65 -7.3 18.9
09:00 1020 30.12 850 25.1 -1.7 29 66 -7.3 18.9
09:05 1020 30.12 850 25.1 -1.6 29.1 66 -7.2 19
09:10 1020 30.12 849 25.07 -1.7 29 66 -7.1 19.2
09:15 1020 30.12 849 25.07 -1.8 28.8 66 -7.3 18.8
09:20 1020 30.12 849 25.07 -1.7 29 66 -7.3 18.8
09:25 1020 30.12 849 25.07 -1.1 30 62 -7.4 18.7
09:30 1020 30.12 849 25.07 -0.5 31.1 60 -7.2 19
09:35 1020 30.12 849 25.07 0.2 32.4 58 -7 19.4
09:40 1020 30.12 849 25.07 -0 32 61 -6.6 20.1
09:45 1020 30.12 849 25.07 -0.5 31.2 61 -7 19.3
09:50 1020 30.12 849 25.07 -0.1 31.8 59 -7.1 19.2
09:55 1020 30.12 849 25.07 0.1 32.1 60 -6.8 19.7
10:00 1020 30.12 849 25.07 0.9 33.5 56 -7 19.4
10:05 1020 30.12 849 25.07 1.3 34.3 55 -6.8 19.8
10:10 1020 30.12 849 25.07 1.3 34.4 56 -6.4 20.4
10:15 1020 30.12 849 25.07 0.8 33.5 57 -6.7 20
10:20 1020 30.12 849 25.07 1.2 34.1 56 -6.8 19.8
10:25 1020 30.12 849 25.07 1.9 35.4 54 -6.6 20.2
10:30 1020 30.12 849 25.07 2.7 36.9 51 -6.3 20.6
10:35 1020 30.12 849 25.07 3 37.3 50 -6.4 20.5
10:40 1020 30.12 849 25.07 2.7 36.8 51 -6.4 20.4
10:45 1020 30.12 849 25.07 3.1 37.6 50 -6.2 20.8
10:50 1020 30.12 849 25.07 3.5 38.3 48 -6.4 20.5
10:55 1020 30.12 849 25.07 3 37.5 49 -6.6 20.2
11:00 1019 30.09 849 25.07 3.4 38.1 46 -7.2 19.1
11:05 1019 30.09 849 25.07 3.7 38.7 46 -7 19.5
11:10 1019 30.09 848 25.04 4 39.2 45 -6.8 19.7
11:15 1019 30.09 848 25.04 4.4 39.9 45 -6.6 20
11:20 1019 30.09 848 25.04 4.3 39.7 44 -6.8 19.7
11:25 1019 30.09 848 25.04 5 40.9 42 -6.9 19.6
11:30 1019 30.09 848 25.04 5.4 41.8 44 -6 21.3
11:35 1019 30.09 848 25.04 4.6 40.3 47 -5.9 21.5
11:40 1019 30.09 848 25.04 4.5 40.2 47 -5.9 21.4
11:45 1019 30.09 848 25.04 4.8 40.6 46 -5.9 21.4
11:50 1019 30.09 848 25.04 5 41.1 45 -5.8 21.6
11:55 1019 30.09 848 25.04 4.4 39.9 48 -5.5 22
12:00 1018 30.06 848 25.04 4.6 40.3 46 -5.9 21.3
12:05 1018 30.06 847 25.01 4.8 40.6 45 -6.1 21
12:10 1018 30.06 847 25.01 5.1 41.2 46 -5.7 21.8
12:15 1018 30.06 847 25.01 4.7 40.5 46 -6 21.1
12:20 1018 30.06 847 25.01 4.7 40.4 46 -5.9 21.4
12:25 1018 30.06 847 25.01 5.3 41.5 44 -6 21.3
12:30 1018 30.06 847 25.01 5.9 42.6 41 -6.5 20.3
12:35 1017 30.03 847 25.01 5.2 41.3 44 -6.1 21.1
12:40 1017 30.03 846 24.98 5.3 41.5 42 -6.7 19.9
12:45 1017 30.03 846 24.98 5.7 42.3 41 -6.7 20
12:50 1017 30.03 846 24.98 5.7 42.3 41 -6.5 20.3
12:55 1017 30.03 846 24.98 6.7 44.1 35 -7.5 18.5
13:00 1017 30.03 846 24.98 6.7 44 35 -7.6 18.4
13:05 1017 30.03 846 24.98 6.9 44.4 37 -6.9 19.5
13:10 1017 30.03 846 24.98 7.2 44.9 34 -7.5 18.5
13:15 1016 30 846 24.98 7.1 44.8 34 -7.5 18.4
13:20 1016 30 846 24.98 7 44.5 39 -5.9 21.3
13:25 1016 30 846 24.98 7.2 44.9 41 -5.2 22.6
13:30 1016 30 845 24.95 7.1 44.8 42 -5.1 22.9
13:35 1016 30 845 24.95 6 42.7 46 -4.9 23.2
13:40 1016 30 845 24.95 6 42.8 45 -5.2 22.7
13:45 1016 30 845 24.95 6 42.8 44 -5.2 22.6
13:50 1016 30 845 24.95 4.8 40.7 48 -5.4 22.3
13:55 1016 30 845 24.95 4.4 39.9 44 -6.9 19.6
14:00 1016 30 845 24.95 5.6 42.1 41 -6.6 20
14:05 1016 30 845 24.95 6.4 43.5 38 -6.9 19.6
14:10 1015 29.97 845 24.95 6.8 44.2 38 -6.6 20.1
14:15 1015 29.97 845 24.95 6.7 44.1 39 -6.3 20.6
14:20 1015 29.97 844 24.92 6.5 43.6 40 -6 21.2
14:25 1015 29.97 844 24.92 6 42.7 41 -6.2 20.9
14:30 1015 29.97 844 24.92 5.6 42 45 -5.5 22.1
14:35 1015 29.97 844 24.92 5.4 41.7 43 -6.3 20.7
14:40 1015 29.97 844 24.92 5.2 41.4 42 -6.6 20.1
14:45 1015 29.97 844 24.92 5.1 41.1 43 -6.6 20.1
14:50 1015 29.97 844 24.92 5 41 41 -7.1 19.3
14:55 1015 29.97 844 24.92 4.6 40.3 40 -8 17.6
15:00 1015 29.97 844 24.92 4.4 39.9 41 -7.6 18.3
15:05 1015 29.97 844 24.92 4.5 40 41 -7.6 18.3
15:10 1015 29.97 844 24.92 4.6 40.3 40 -7.9 17.9
15:15 1015 29.97 844 24.92 4.3 39.8 43 -7.1 19.3
15:20 1014 29.94 844 24.92 3.9 39 44 -7.2 19
15:25 1014 29.94 844 24.92 3.5 38.3 42 -8.1 17.4
15:30 1014 29.94 843 24.89 3.4 38.2 41 -8.5 16.6
15:35 1014 29.94 843 24.89 3.9 39.1 37 -9.4 15
15:40 1014 29.94 843 24.89 4.1 39.4 43 -7.5 18.5
15:45 1014 29.94 843 24.89 4.2 39.5 40 -8.4 16.9
15:50 1014 29.94 843 24.89 4.4 39.8 43 -7.3 18.9
15:55 1014 29.94 843 24.89 3.7 38.6 45 -7.2 19
16:00 1014 29.94 843 24.89 3.7 38.7 47 -6.6 20.1
16:05 1014 29.94 843 24.89 3.8 38.8 48 -6.3 20.6
16:10 1014 29.94 843 24.89 3.6 38.5 49 -6.1 21
16:15 1014 29.94 843 24.89 2.9 37.2 51 -6.3 20.7
16:20 1014 29.94 843 24.89 2.8 37.1 49 -6.9 19.5
16:25 1014 29.94 843 24.89 3.3 38 53 -5.3 22.5
16:30 1014 29.94 843 24.89 2.6 36.7 56 -5.3 22.4
16:35 1014 29.94 843 24.89 2.8 37 52 -6.1 21.1
16:40 1014 29.94 843 24.89 2.8 37 55 -5.5 22.2
16:45 1014 29.94 843 24.89 2.7 36.9 55 -5.4 22.3
16:50 1014 29.94 843 24.89 2.5 36.6 47 -7.6 18.3
16:55 1014 29.94 843 24.89 2.7 36.9 52 -6.1 20.9
17:00 1014 29.94 843 24.89 2.6 36.7 45 -8.1 17.4
17:05 1014 29.94 843 24.89 3.8 38.9 35 -10.4 13.3
17:10 1013 29.91 843 24.89 6 42.7 34 -8.6 16.5
17:15 1013 29.91 842 24.86 5.8 42.5 30 -10.5 13.1
17:20 1013 29.91 842 24.86 5 41 33 -10.1 13.7
17:25 1013 29.91 842 24.86 5.7 42.2 31 -10.1 13.9
17:30 1013 29.91 842 24.86 5.8 42.5 29 -10.8 12.6
17:35 1013 29.91 842 24.86 6.6 43.9 25 -12.2 10.1
17:40 1013 29.91 842 24.86 7.3 45.2 25 -11.5 11.3
17:45 1013 29.91 842 24.86 7.6 45.7 24 -11.7 10.9
17:50 1013 29.91 842 24.86 7.7 45.9 24 -11.5 11.3
17:55 1013 29.91 842 24.86 7.7 45.8 25 -11 12.2
18:00 1013 29.91 842 24.86 7.7 45.9 25 -11.1 12
18:05 1013 29.91 842 24.86 7.5 45.5 25 -11.2 11.8
18:10 1013 29.91 842 24.86 7.4 45.4 27 -10.5 13.1
18:15 1013 29.91 842 24.86 7 44.5 27 -10.8 12.5
18:20 1013 29.91 842 24.86 6.9 44.4 26 -11.3 11.7
18:25 1013 29.91 842 24.86 7.2 44.9 26 -11.1 12
18:30 1013 29.91 842 24.86 7.4 45.3 26 -11 12.2
18:35 1013 29.91 842 24.86 7.3 45.1 27 -10.4 13.3
18:40 1013 29.91 842 24.86 7 44.6 32 -8.6 16.6
18:45 1013 29.91 842 24.86 5 41.1 35 -9 15.8
18:50 1013 29.91 842 24.86 4.1 39.5 39 -8.7 16.3
18:55 1013 29.91 842 24.86 4 39.1 38 -9 15.9
19:00 1013 29.91 842 24.86 3.9 39.1 36 -9.8 14.3
19:05 1013 29.91 842 24.86 4.2 39.5 34 -10.2 13.6
19:10 1013 29.91 842 24.86 4.5 40.2 34 -10.1 13.7
19:15 1013 29.91 842 24.86 4.6 40.3 34 -10.1 13.8
19:20 1013 29.91 842 24.86 4.9 40.7 32 -10.6 13
19:25 1013 29.91 842 24.86 5.3 41.6 31 -10.6 12.9
19:30 1013 29.91 842 24.86 5.3 41.6 30 -10.8 12.5
19:35 1013 29.91 842 24.86 5.7 42.3 28 -11.3 11.7
19:40 1012 29.88 842 24.86 5.8 42.5 29 -11.1 12.1
19:45 1012 29.88 842 24.86 5.8 42.4 28 -11.3 11.7
19:50 1012 29.88 842 24.86 5.9 42.5 28 -11.4 11.5
19:55 1012 29.88 841 24.83 6.2 43.1 27 -11.5 11.3
20:00 1012 29.88 841 24.83 6.3 43.3 26 -11.7 11
20:05 1012 29.88 842 24.86 6.3 43.4 27 -11.3 11.7
20:10 1012 29.88 842 24.86 6.3 43.3 29 -10.3 13.4
20:15 1012 29.88 842 24.86 5.6 42.1 29 -11 12.2
20:20 1012 29.88 842 24.86 5.8 42.4 28 -11.3 11.6
20:25 1012 29.88 842 24.86 6.1 42.9 28 -10.9 12.4
20:30 1012 29.88 842 24.86 5.7 42.2 30 -10.6 12.9
20:35 1013 29.91 842 24.86 5.5 42 30 -10.8 12.5
20:40 1013 29.91 842 24.86 5.6 42.1 29 -11 12.3
20:45 1013 29.91 842 24.86 5.7 42.3 30 -10.6 13
20:50 1013 29.91 842 24.86 5.7 42.2 30 -10.6 12.9
20:55 1013 29.91 842 24.86 5.6 42.2 30 -10.6 13
21:00 1013 29.91 842 24.86 5.5 42 32 -9.9 14.2
21:05 1013 29.91 842 24.86 5 40.9 34 -9.7 14.5
21:10 1012 29.88 842 24.86 4.6 40.2 34 -9.8 14.4
21:15 1012 29.88 842 24.86 4.4 40 35 -9.9 14.3
21:20 1012 29.88 842 24.86 4.6 40.3 34 -10.1 13.8
21:25 1012 29.88 842 24.86 4.6 40.3 33 -10.5 13.1
21:30 1013 29.91 842 24.86 4.9 40.9 33 -10 14
21:35 1013 29.91 842 24.86 5 41 33 -9.8 14.3
21:40 1013 29.91 842 24.86 5.3 41.5 31 -10.3 13.4
21:45 1013 29.91 842 24.86 5.5 41.9 32 -10 14
21:50 1012 29.88 842 24.86 5.4 41.6 34 -9.5 15
21:55 1012 29.88 842 24.86 5.1 41.2 34 -9.6 14.7
22:00 1012 29.88 842 24.86 4.9 40.7 35 -9.4 15.1
22:05 1012 29.88 842 24.86 4.6 40.3 36 -9.3 15.2
22:10 1012 29.88 842 24.86 4.4 40 35 -9.6 14.7
22:15 1012 29.88 842 24.86 4.5 40 35 -9.5 14.8
22:20 1012 29.88 842 24.86 4.4 39.8 37 -9.1 15.6
22:25 1013 29.91 842 24.86 4.3 39.7 38 -8.8 16.2
22:30 1013 29.91 842 24.86 4.1 39.4 39 -8.7 16.3
22:35 1013 29.91 842 24.86 3.9 39 38 -9.3 15.3
22:40 1013 29.91 842 24.86 3.9 38.9 37 -9.4 15
22:45 1013 29.91 842 24.86 4 39.1 36 -9.9 14.2
22:50 1013 29.91 842 24.86 4.6 40.4 34 -9.8 14.4
22:55 1013 29.91 842 24.86 4.8 40.6 35 -9.3 15.2
23:00 1013 29.91 842 24.86 4.6 40.2 35 -9.5 14.9
23:05 1013 29.91 842 24.86 4.6 40.3 35 -9.6 14.8
23:10 1013 29.91 842 24.86 4.7 40.4 35 -9.4 15
23:15 1013 29.91 842 24.86 4.6 40.3 36 -9.4 15.1
23:20 1013 29.91 842 24.86 4.4 40 36 -9.3 15.3
23:25 1013 29.91 842 24.86 4.2 39.5 37 -9.3 15.2
23:30 1013 29.91 842 24.86 4 39.2 39 -8.9 16
23:35 1013 29.91 842 24.86 3.9 39 38 -9.1 15.7
23:40 1013 29.91 842 24.86 3.9 38.9 39 -8.9 16
23:45 1013 29.91 842 24.86 3.8 38.8 42 -8 17.6
23:50 1013 29.91 842 24.86 3.6 38.4 42 -8.2 17.3
23:55 1013 29.91 842 24.86 3.4 38.2 43 -8.1 17.5
24:00 1013 29.91 842 24.86 3.3 38 40 -9 15.8